sensor_id;sensor_type;location;lat;lon;timestamp;temperature;humidity
75380;HTU21D;65641;44.714;37.756;2023-03-31T00:00:37;7.10;68.07
75380;HTU21D;65641;44.714;37.756;2023-03-31T00:01:41;7.09;68.09
75380;HTU21D;65641;44.714;37.756;2023-03-31T00:02:46;7.10;68.08
75380;HTU21D;65641;44.714;37.756;2023-03-31T00:03:51;7.10;68.08
75380;HTU21D;65641;44.714;37.756;2023-03-31T00:05:04;7.10;68.08
75380;HTU21D;65641;44.714;37.756;2023-03-31T00:06:10;7.11;68.08
75380;HTU21D;65641;44.714;37.756;2023-03-31T00:07:15;7.09;68.09
75380;HTU21D;65641;44.714;37.756;2023-03-31T00:08:19;7.10;68.10
75380;HTU21D;65641;44.714;37.756;2023-03-31T00:09:25;7.09;68.10
75380;HTU21D;65641;44.714;37.756;2023-03-31T00:10:33;7.10;68.08
75380;HTU21D;65641;44.714;37.756;2023-03-31T00:11:39;7.11;68.09
75380;HTU21D;65641;44.714;37.756;2023-03-31T00:12:43;7.11;68.09
75380;HTU21D;65641;44.714;37.756;2023-03-31T00:13:48;7.11;68.07
75380;HTU21D;65641;44.714;37.756;2023-03-31T00:14:52;7.11;68.07
75380;HTU21D;65641;44.714;37.756;2023-03-31T00:16:05;7.10;68.07
75380;HTU21D;65641;44.714;37.756;2023-03-31T00:17:13;7.10;68.08
75380;HTU21D;65641;44.714;37.756;2023-03-31T00:18:19;7.10;68.07
75380;HTU21D;65641;44.714;37.756;2023-03-31T00:19:26;7.11;68.09
75380;HTU21D;65641;44.714;37.756;2023-03-31T00:20:32;7.12;68.07
75380;HTU21D;65641;44.714;37.756;2023-03-31T00:21:41;7.11;68.07
75380;HTU21D;65641;44.714;37.756;2023-03-31T00:22:46;7.13;68.10
75380;HTU21D;65641;44.714;37.756;2023-03-31T00:23:55;7.12;68.10
75380;HTU21D;65641;44.714;37.756;2023-03-31T00:25:00;7.12;68.09
75380;HTU21D;65641;44.714;37.756;2023-03-31T00:26:03;7.10;68.10
75380;HTU21D;65641;44.714;37.756;2023-03-31T00:27:09;7.12;68.10
75380;HTU21D;65641;44.714;37.756;2023-03-31T00:28:14;7.11;68.10
75380;HTU21D;65641;44.714;37.756;2023-03-31T00:29:17;7.11;68.10
75380;HTU21D;65641;44.714;37.756;2023-03-31T00:30:23;7.12;68.12
75380;HTU21D;65641;44.714;37.756;2023-03-31T00:31:28;7.12;68.12
75380;HTU21D;65641;44.714;37.756;2023-03-31T00:32:33;7.12;68.12
75380;HTU21D;65641;44.714;37.756;2023-03-31T00:33:39;7.12;68.13
75380;HTU21D;65641;44.714;37.756;2023-03-31T00:34:44;7.12;68.13
75380;HTU21D;65641;44.714;37.756;2023-03-31T00:35:52;7.13;68.13
75380;HTU21D;65641;44.714;37.756;2023-03-31T00:37:00;7.12;68.16
75380;HTU21D;65641;44.714;37.756;2023-03-31T00:38:05;7.13;68.17
75380;HTU21D;65641;44.714;37.756;2023-03-31T00:39:12;7.14;68.17
75380;HTU21D;65641;44.714;37.756;2023-03-31T00:40:20;7.12;68.18
75380;HTU21D;65641;44.714;37.756;2023-03-31T00:41:26;7.13;68.18
75380;HTU21D;65641;44.714;37.756;2023-03-31T00:42:41;7.15;68.20
75380;HTU21D;65641;44.714;37.756;2023-03-31T00:46:26;7.16;68.20
75380;HTU21D;65641;44.714;37.756;2023-03-31T00:47:32;7.16;68.22
75380;HTU21D;65641;44.714;37.756;2023-03-31T00:48:38;7.16;68.23
75380;HTU21D;65641;44.714;37.756;2023-03-31T00:49:53;7.16;68.23
75380;HTU21D;65641;44.714;37.756;2023-03-31T00:51:03;7.17;68.23
75380;HTU21D;65641;44.714;37.756;2023-03-31T00:52:12;7.17;68.23
75380;HTU21D;65641;44.714;37.756;2023-03-31T00:53:19;7.18;68.24
75380;HTU21D;65641;44.714;37.756;2023-03-31T00:54:26;7.18;68.24
75380;HTU21D;65641;44.714;37.756;2023-03-31T00:55:41;7.19;68.24
75380;HTU21D;65641;44.714;37.756;2023-03-31T00:56:48;7.20;68.23
75380;HTU21D;65641;44.714;37.756;2023-03-31T00:57:58;7.22;68.24
75380;HTU21D;65641;44.714;37.756;2023-03-31T00:59:08;7.22;68.24
75380;HTU21D;65641;44.714;37.756;2023-03-31T01:00:14;7.23;68.24
75380;HTU21D;65641;44.714;37.756;2023-03-31T01:01:21;7.23;68.23
75380;HTU21D;65641;44.714;37.756;2023-03-31T01:02:28;7.23;68.22
75380;HTU21D;65641;44.714;37.756;2023-03-31T01:03:31;7.24;68.22
75380;HTU21D;65641;44.714;37.756;2023-03-31T01:04:43;7.24;68.20
75380;HTU21D;65641;44.714;37.756;2023-03-31T01:06:10;7.25;68.21
75380;HTU21D;65641;44.714;37.756;2023-03-31T01:07:19;7.26;68.20
75380;HTU21D;65641;44.714;37.756;2023-03-31T01:08:26;7.26;68.20
75380;HTU21D;65641;44.714;37.756;2023-03-31T01:09:32;7.26;68.19
75380;HTU21D;65641;44.714;37.756;2023-03-31T01:10:47;7.27;68.20
75380;HTU21D;65641;44.714;37.756;2023-03-31T01:11:54;7.27;68.19
75380;HTU21D;65641;44.714;37.756;2023-03-31T01:12:58;7.27;68.20
75380;HTU21D;65641;44.714;37.756;2023-03-31T01:14:02;7.29;68.20
75380;HTU21D;65641;44.714;37.756;2023-03-31T01:15:08;7.28;68.21
75380;HTU21D;65641;44.714;37.756;2023-03-31T01:16:14;7.29;68.20
75380;HTU21D;65641;44.714;37.756;2023-03-31T01:17:20;7.30;68.21
75380;HTU21D;65641;44.714;37.756;2023-03-31T01:18:26;7.29;68.22
75380;HTU21D;65641;44.714;37.756;2023-03-31T01:28:13;7.34;68.26
75380;HTU21D;65641;44.714;37.756;2023-03-31T01:40:11;7.40;68.29
75380;HTU21D;65641;44.714;37.756;2023-03-31T01:43:54;7.41;68.27
75380;HTU21D;65641;44.714;37.756;2023-03-31T01:46:40;7.41;68.27
75380;HTU21D;65641;44.714;37.756;2023-03-31T01:51:17;7.43;68.23
75380;HTU21D;65641;44.714;37.756;2023-03-31T01:52:29;7.45;68.26
75380;HTU21D;65641;44.714;37.756;2023-03-31T01:55:08;7.46;68.22
75380;HTU21D;65641;44.714;37.756;2023-03-31T01:56:24;7.46;68.23
75380;HTU21D;65641;44.714;37.756;2023-03-31T01:57:35;7.47;68.21
75380;HTU21D;65641;44.714;37.756;2023-03-31T01:58:52;7.48;68.21
75380;HTU21D;65641;44.714;37.756;2023-03-31T02:00:05;7.46;68.20
75380;HTU21D;65641;44.714;37.756;2023-03-31T02:01:20;7.49;68.20
75380;HTU21D;65641;44.714;37.756;2023-03-31T02:02:32;7.49;68.20
75380;HTU21D;65641;44.714;37.756;2023-03-31T02:03:45;7.49;68.18
75380;HTU21D;65641;44.714;37.756;2023-03-31T02:04:57;7.50;68.16
75380;HTU21D;65641;44.714;37.756;2023-03-31T02:06:13;7.50;68.17
75380;HTU21D;65641;44.714;37.756;2023-03-31T02:07:23;7.50;68.17
75380;HTU21D;65641;44.714;37.756;2023-03-31T02:08:33;7.53;68.16
75380;HTU21D;65641;44.714;37.756;2023-03-31T02:09:41;7.54;68.18
75380;HTU21D;65641;44.714;37.756;2023-03-31T02:10:47;7.54;68.17
75380;HTU21D;65641;44.714;37.756;2023-03-31T02:11:54;7.55;68.15
75380;HTU21D;65641;44.714;37.756;2023-03-31T02:12:59;7.54;68.14
75380;HTU21D;65641;44.714;37.756;2023-03-31T02:14:08;7.55;68.13
75380;HTU21D;65641;44.714;37.756;2023-03-31T02:15:36;7.56;68.12
75380;HTU21D;65641;44.714;37.756;2023-03-31T02:16:44;7.56;68.10
75380;HTU21D;65641;44.714;37.756;2023-03-31T02:17:53;7.57;68.08
75380;HTU21D;65641;44.714;37.756;2023-03-31T02:19:00;7.56;68.09
75380;HTU21D;65641;44.714;37.756;2023-03-31T02:20:11;7.57;68.09
75380;HTU21D;65641;44.714;37.756;2023-03-31T02:21:16;7.57;68.07
75380;HTU21D;65641;44.714;37.756;2023-03-31T02:22:23;7.57;68.10
75380;HTU21D;65641;44.714;37.756;2023-03-31T02:23:28;7.58;68.12
75380;HTU21D;65641;44.714;37.756;2023-03-31T02:24:37;7.57;68.13
75380;HTU21D;65641;44.714;37.756;2023-03-31T02:25:50;7.58;68.16
75380;HTU21D;65641;44.714;37.756;2023-03-31T02:28:21;7.57;68.17
75380;HTU21D;65641;44.714;37.756;2023-03-31T02:29:27;7.58;68.17
75380;HTU21D;65641;44.714;37.756;2023-03-31T02:32:29;7.57;68.18
75380;HTU21D;65641;44.714;37.756;2023-03-31T02:33:35;7.57;68.19
75380;HTU21D;65641;44.714;37.756;2023-03-31T02:34:40;7.56;68.20
75380;HTU21D;65641;44.714;37.756;2023-03-31T02:35:45;7.56;68.22
75380;HTU21D;65641;44.714;37.756;2023-03-31T02:36:50;7.55;68.23
75380;HTU21D;65641;44.714;37.756;2023-03-31T02:37:53;7.54;68.24
75380;HTU21D;65641;44.714;37.756;2023-03-31T02:39:05;7.55;68.26
75380;HTU21D;65641;44.714;37.756;2023-03-31T02:40:16;7.53;68.27
75380;HTU21D;65641;44.714;37.756;2023-03-31T02:41:21;7.54;68.30
75380;HTU21D;65641;44.714;37.756;2023-03-31T02:42:25;7.53;68.33
75380;HTU21D;65641;44.714;37.756;2023-03-31T02:43:29;7.53;68.34
75380;HTU21D;65641;44.714;37.756;2023-03-31T02:44:35;7.53;68.38
75380;HTU21D;65641;44.714;37.756;2023-03-31T02:45:48;7.53;68.40
75380;HTU21D;65641;44.714;37.756;2023-03-31T02:46:53;7.52;68.43
75380;HTU21D;65641;44.714;37.756;2023-03-31T02:48:00;7.52;68.47
75380;HTU21D;65641;44.714;37.756;2023-03-31T02:49:06;7.52;68.48
75380;HTU21D;65641;44.714;37.756;2023-03-31T02:50:11;7.50;68.50
75380;HTU21D;65641;44.714;37.756;2023-03-31T02:51:27;7.50;68.53
75380;HTU21D;65641;44.714;37.756;2023-03-31T02:55:41;7.49;68.59
75380;HTU21D;65641;44.714;37.756;2023-03-31T03:05:11;7.47;68.69
75380;HTU21D;65641;44.714;37.756;2023-03-31T03:11:09;7.47;68.73
75380;HTU21D;65641;44.714;37.756;2023-03-31T03:12:24;7.46;68.75
75380;HTU21D;65641;44.714;37.756;2023-03-31T03:14:26;7.46;68.78
75380;HTU21D;65641;44.714;37.756;2023-03-31T03:15:46;7.47;68.80
75380;HTU21D;65641;44.714;37.756;2023-03-31T03:17:10;7.46;68.82
75380;HTU21D;65641;44.714;37.756;2023-03-31T03:18:16;7.46;68.84
75380;HTU21D;65641;44.714;37.756;2023-03-31T03:19:21;7.46;68.87
75380;HTU21D;65641;44.714;37.756;2023-03-31T03:20:25;7.46;68.88
75380;HTU21D;65641;44.714;37.756;2023-03-31T03:21:28;7.47;68.89
75380;HTU21D;65641;44.714;37.756;2023-03-31T03:22:35;7.47;68.89
75380;HTU21D;65641;44.714;37.756;2023-03-31T03:23:41;7.46;68.92
75380;HTU21D;65641;44.714;37.756;2023-03-31T03:24:46;7.46;68.93
75380;HTU21D;65641;44.714;37.756;2023-03-31T03:25:49;7.47;68.94
75380;HTU21D;65641;44.714;37.756;2023-03-31T03:26:52;7.48;68.97
75380;HTU21D;65641;44.714;37.756;2023-03-31T03:27:57;7.48;68.97
75380;HTU21D;65641;44.714;37.756;2023-03-31T03:29:01;7.49;69.00
75380;HTU21D;65641;44.714;37.756;2023-03-31T03:30:08;7.48;69.04
75380;HTU21D;65641;44.714;37.756;2023-03-31T03:31:14;7.52;69.07
75380;HTU21D;65641;44.714;37.756;2023-03-31T03:32:17;7.52;69.11
75380;HTU21D;65641;44.714;37.756;2023-03-31T03:33:21;7.52;69.12
75380;HTU21D;65641;44.714;37.756;2023-03-31T03:34:27;7.54;69.13
75380;HTU21D;65641;44.714;37.756;2023-03-31T03:35:35;7.55;69.14
75380;HTU21D;65641;44.714;37.756;2023-03-31T03:36:39;7.57;69.14
75380;HTU21D;65641;44.714;37.756;2023-03-31T03:37:43;7.58;69.14
75380;HTU21D;65641;44.714;37.756;2023-03-31T03:38:49;7.58;69.13
75380;HTU21D;65641;44.714;37.756;2023-03-31T03:39:56;7.61;69.13
75380;HTU21D;65641;44.714;37.756;2023-03-31T03:40:59;7.61;69.09
75380;HTU21D;65641;44.714;37.756;2023-03-31T03:42:03;7.63;69.04
75380;HTU21D;65641;44.714;37.756;2023-03-31T03:43:07;7.64;68.97
75380;HTU21D;65641;44.714;37.756;2023-03-31T03:44:11;7.65;68.91
75380;HTU21D;65641;44.714;37.756;2023-03-31T03:45:14;7.67;68.85
75380;HTU21D;65641;44.714;37.756;2023-03-31T03:46:18;7.70;68.81
75380;HTU21D;65641;44.714;37.756;2023-03-31T03:47:22;7.68;68.78
75380;HTU21D;65641;44.714;37.756;2023-03-31T03:48:29;7.68;68.77
75380;HTU21D;65641;44.714;37.756;2023-03-31T03:49:32;7.69;68.75
75380;HTU21D;65641;44.714;37.756;2023-03-31T03:50:37;7.70;68.77
75380;HTU21D;65641;44.714;37.756;2023-03-31T03:51:41;7.71;68.80
75380;HTU21D;65641;44.714;37.756;2023-03-31T03:52:46;7.73;68.81
75380;HTU21D;65641;44.714;37.756;2023-03-31T03:53:49;7.75;68.88
75380;HTU21D;65641;44.714;37.756;2023-03-31T03:54:53;7.74;68.91
75380;HTU21D;65641;44.714;37.756;2023-03-31T03:55:57;7.75;68.95
75380;HTU21D;65641;44.714;37.756;2023-03-31T03:57:00;7.77;68.99
75380;HTU21D;65641;44.714;37.756;2023-03-31T03:58:04;7.81;69.04
75380;HTU21D;65641;44.714;37.756;2023-03-31T03:59:10;7.81;69.04
75380;HTU21D;65641;44.714;37.756;2023-03-31T04:00:13;7.83;69.02
75380;HTU21D;65641;44.714;37.756;2023-03-31T04:01:17;7.85;68.98
75380;HTU21D;65641;44.714;37.756;2023-03-31T04:02:21;7.88;68.97
75380;HTU21D;65641;44.714;37.756;2023-03-31T04:03:28;7.90;68.97
75380;HTU21D;65641;44.714;37.756;2023-03-31T04:04:31;7.92;68.97
75380;HTU21D;65641;44.714;37.756;2023-03-31T04:05:40;7.94;68.94
75380;HTU21D;65641;44.714;37.756;2023-03-31T04:06:44;7.98;68.91
75380;HTU21D;65641;44.714;37.756;2023-03-31T04:07:47;8.00;68.86
75380;HTU21D;65641;44.714;37.756;2023-03-31T04:08:51;8.02;68.79
75380;HTU21D;65641;44.714;37.756;2023-03-31T04:09:54;8.05;68.75
75380;HTU21D;65641;44.714;37.756;2023-03-31T04:10:58;8.07;68.78
75380;HTU21D;65641;44.714;37.756;2023-03-31T04:12:02;8.09;68.73
75380;HTU21D;65641;44.714;37.756;2023-03-31T04:13:06;8.14;68.71
75380;HTU21D;65641;44.714;37.756;2023-03-31T04:14:09;8.16;68.65
75380;HTU21D;65641;44.714;37.756;2023-03-31T04:15:14;8.18;68.55
75380;HTU21D;65641;44.714;37.756;2023-03-31T04:16:18;8.20;68.40
75380;HTU21D;65641;44.714;37.756;2023-03-31T04:17:24;8.22;68.29
75380;HTU21D;65641;44.714;37.756;2023-03-31T04:18:34;8.24;68.10
75380;HTU21D;65641;44.714;37.756;2023-03-31T04:19:38;8.26;67.98
75380;HTU21D;65641;44.714;37.756;2023-03-31T04:20:44;8.28;67.86
75380;HTU21D;65641;44.714;37.756;2023-03-31T04:21:49;8.29;67.77
75380;HTU21D;65641;44.714;37.756;2023-03-31T04:23:02;8.30;67.71
75380;HTU21D;65641;44.714;37.756;2023-03-31T04:24:09;8.31;67.65
75380;HTU21D;65641;44.714;37.756;2023-03-31T04:25:15;8.31;67.64
75380;HTU21D;65641;44.714;37.756;2023-03-31T04:26:19;8.32;67.65
75380;HTU21D;65641;44.714;37.756;2023-03-31T04:27:30;8.32;67.63
75380;HTU21D;65641;44.714;37.756;2023-03-31T04:28:38;8.33;67.64
75380;HTU21D;65641;44.714;37.756;2023-03-31T04:29:45;8.31;67.67
75380;HTU21D;65641;44.714;37.756;2023-03-31T04:30:57;8.32;67.72
75380;HTU21D;65641;44.714;37.756;2023-03-31T04:32:01;8.33;67.78
75380;HTU21D;65641;44.714;37.756;2023-03-31T04:33:06;8.34;67.83
75380;HTU21D;65641;44.714;37.756;2023-03-31T04:34:12;8.32;67.88
75380;HTU21D;65641;44.714;37.756;2023-03-31T04:35:16;8.33;67.91
75380;HTU21D;65641;44.714;37.756;2023-03-31T04:36:20;8.33;67.92
75380;HTU21D;65641;44.714;37.756;2023-03-31T04:37:24;8.36;67.92
75380;HTU21D;65641;44.714;37.756;2023-03-31T04:38:31;8.35;67.96
75380;HTU21D;65641;44.714;37.756;2023-03-31T04:39:36;8.36;68.04
75380;HTU21D;65641;44.714;37.756;2023-03-31T04:40:41;8.38;68.10
75380;HTU21D;65641;44.714;37.756;2023-03-31T04:41:45;8.38;68.17
75380;HTU21D;65641;44.714;37.756;2023-03-31T04:42:49;8.39;68.15
75380;HTU21D;65641;44.714;37.756;2023-03-31T04:43:53;8.42;68.17
75380;HTU21D;65641;44.714;37.756;2023-03-31T04:44:57;8.42;68.11
75380;HTU21D;65641;44.714;37.756;2023-03-31T04:46:00;8.44;68.07
75380;HTU21D;65641;44.714;37.756;2023-03-31T04:47:03;8.44;68.04
75380;HTU21D;65641;44.714;37.756;2023-03-31T04:48:08;8.45;68.03
75380;HTU21D;65641;44.714;37.756;2023-03-31T04:49:12;8.46;68.02
75380;HTU21D;65641;44.714;37.756;2023-03-31T04:50:14;8.47;68.00
75380;HTU21D;65641;44.714;37.756;2023-03-31T04:51:18;8.48;67.98
75380;HTU21D;65641;44.714;37.756;2023-03-31T04:52:21;8.49;67.99
75380;HTU21D;65641;44.714;37.756;2023-03-31T04:53:25;8.50;68.02
75380;HTU21D;65641;44.714;37.756;2023-03-31T04:54:29;8.50;68.02
75380;HTU21D;65641;44.714;37.756;2023-03-31T04:55:33;8.50;68.04
75380;HTU21D;65641;44.714;37.756;2023-03-31T04:56:36;8.52;68.12
75380;HTU21D;65641;44.714;37.756;2023-03-31T04:57:39;8.56;68.21
75380;HTU21D;65641;44.714;37.756;2023-03-31T04:58:46;8.57;68.25
75380;HTU21D;65641;44.714;37.756;2023-03-31T04:59:49;8.58;68.31
75380;HTU21D;65641;44.714;37.756;2023-03-31T05:00:52;8.61;68.28
75380;HTU21D;65641;44.714;37.756;2023-03-31T05:01:57;8.62;68.28
75380;HTU21D;65641;44.714;37.756;2023-03-31T05:02:59;8.64;68.17
75380;HTU21D;65641;44.714;37.756;2023-03-31T05:04:04;8.67;68.11
75380;HTU21D;65641;44.714;37.756;2023-03-31T05:05:07;8.67;68.07
75380;HTU21D;65641;44.714;37.756;2023-03-31T05:06:11;8.70;68.00
75380;HTU21D;65641;44.714;37.756;2023-03-31T05:07:14;8.72;67.94
75380;HTU21D;65641;44.714;37.756;2023-03-31T05:08:17;8.74;67.91
75380;HTU21D;65641;44.714;37.756;2023-03-31T05:09:20;8.75;67.91
75380;HTU21D;65641;44.714;37.756;2023-03-31T05:10:23;8.77;67.94
75380;HTU21D;65641;44.714;37.756;2023-03-31T05:11:27;8.78;67.94
75380;HTU21D;65641;44.714;37.756;2023-03-31T05:12:36;8.82;67.99
75380;HTU21D;65641;44.714;37.756;2023-03-31T05:13:39;8.85;67.95
75380;HTU21D;65641;44.714;37.756;2023-03-31T05:14:42;8.86;67.88
75380;HTU21D;65641;44.714;37.756;2023-03-31T05:15:45;8.90;67.82
75380;HTU21D;65641;44.714;37.756;2023-03-31T05:16:52;8.92;67.72
75380;HTU21D;65641;44.714;37.756;2023-03-31T05:17:59;8.93;67.69
75380;HTU21D;65641;44.714;37.756;2023-03-31T05:19:02;8.96;67.64
75380;HTU21D;65641;44.714;37.756;2023-03-31T05:20:06;8.98;67.62
75380;HTU21D;65641;44.714;37.756;2023-03-31T05:21:18;9.03;67.60
75380;HTU21D;65641;44.714;37.756;2023-03-31T05:22:21;9.05;67.67
75380;HTU21D;65641;44.714;37.756;2023-03-31T05:23:27;9.09;67.72
75380;HTU21D;65641;44.714;37.756;2023-03-31T05:24:30;9.12;67.79
75380;HTU21D;65641;44.714;37.756;2023-03-31T05:25:33;9.17;67.72
75380;HTU21D;65641;44.714;37.756;2023-03-31T05:26:36;9.21;67.65
75380;HTU21D;65641;44.714;37.756;2023-03-31T05:27:39;9.26;67.79
75380;HTU21D;65641;44.714;37.756;2023-03-31T05:28:42;9.31;67.57
75380;HTU21D;65641;44.714;37.756;2023-03-31T05:29:45;9.36;67.61
75380;HTU21D;65641;44.714;37.756;2023-03-31T05:30:48;9.41;67.49
75380;HTU21D;65641;44.714;37.756;2023-03-31T05:31:51;9.48;67.41
75380;HTU21D;65641;44.714;37.756;2023-03-31T05:32:57;9.53;67.26
75380;HTU21D;65641;44.714;37.756;2023-03-31T05:34:00;9.60;66.94
75380;HTU21D;65641;44.714;37.756;2023-03-31T05:35:03;9.66;66.40
75380;HTU21D;65641;44.714;37.756;2023-03-31T05:36:12;9.72;66.86
75380;HTU21D;65641;44.714;37.756;2023-03-31T05:37:15;9.80;66.56
75380;HTU21D;65641;44.714;37.756;2023-03-31T05:38:18;9.84;66.27
75380;HTU21D;65641;44.714;37.756;2023-03-31T05:39:21;9.92;66.02
75380;HTU21D;65641;44.714;37.756;2023-03-31T05:40:24;9.97;65.75
75380;HTU21D;65641;44.714;37.756;2023-03-31T05:41:27;10.01;65.69
75380;HTU21D;65641;44.714;37.756;2023-03-31T05:42:30;10.08;65.53
75380;HTU21D;65641;44.714;37.756;2023-03-31T05:43:33;10.12;65.13
75380;HTU21D;65641;44.714;37.756;2023-03-31T05:44:36;10.16;65.01
75380;HTU21D;65641;44.714;37.756;2023-03-31T05:45:39;10.22;64.93
75380;HTU21D;65641;44.714;37.756;2023-03-31T05:46:46;10.25;64.73
75380;HTU21D;65641;44.714;37.756;2023-03-31T05:47:49;10.28;64.68
75380;HTU21D;65641;44.714;37.756;2023-03-31T05:48:54;10.33;64.57
75380;HTU21D;65641;44.714;37.756;2023-03-31T05:49:58;10.36;64.37
75380;HTU21D;65641;44.714;37.756;2023-03-31T05:51:01;10.39;64.43
75380;HTU21D;65641;44.714;37.756;2023-03-31T05:52:05;10.42;64.27
75380;HTU21D;65641;44.714;37.756;2023-03-31T05:53:12;10.45;64.17
75380;HTU21D;65641;44.714;37.756;2023-03-31T05:54:15;10.48;64.10
75380;HTU21D;65641;44.714;37.756;2023-03-31T05:55:18;10.52;63.89
75380;HTU21D;65641;44.714;37.756;2023-03-31T05:56:21;10.53;63.80
75380;HTU21D;65641;44.714;37.756;2023-03-31T05:57:25;10.54;63.86
75380;HTU21D;65641;44.714;37.756;2023-03-31T05:58:29;10.57;63.79
75380;HTU21D;65641;44.714;37.756;2023-03-31T05:59:32;10.58;63.75
75380;HTU21D;65641;44.714;37.756;2023-03-31T06:00:39;10.60;63.69
75380;HTU21D;65641;44.714;37.756;2023-03-31T06:01:42;10.63;63.62
75380;HTU21D;65641;44.714;37.756;2023-03-31T06:02:46;10.65;63.54
75380;HTU21D;65641;44.714;37.756;2023-03-31T06:03:49;10.67;63.41
75380;HTU21D;65641;44.714;37.756;2023-03-31T06:04:53;10.69;63.23
75380;HTU21D;65641;44.714;37.756;2023-03-31T06:05:56;10.69;63.24
75380;HTU21D;65641;44.714;37.756;2023-03-31T06:07:00;10.70;63.11
75380;HTU21D;65641;44.714;37.756;2023-03-31T06:08:04;10.71;63.05
75380;HTU21D;65641;44.714;37.756;2023-03-31T06:09:08;10.71;63.01
75380;HTU21D;65641;44.714;37.756;2023-03-31T06:10:11;10.72;62.95
75380;HTU21D;65641;44.714;37.756;2023-03-31T06:11:19;10.72;62.91
75380;HTU21D;65641;44.714;37.756;2023-03-31T06:12:22;10.71;62.90
75380;HTU21D;65641;44.714;37.756;2023-03-31T06:13:25;10.72;62.90
75380;HTU21D;65641;44.714;37.756;2023-03-31T06:14:28;10.70;62.89
75380;HTU21D;65641;44.714;37.756;2023-03-31T06:15:32;10.70;62.94
75380;HTU21D;65641;44.714;37.756;2023-03-31T06:16:35;10.69;62.93
75380;HTU21D;65641;44.714;37.756;2023-03-31T06:17:38;10.70;62.95
75380;HTU21D;65641;44.714;37.756;2023-03-31T06:18:41;10.69;63.02
75380;HTU21D;65641;44.714;37.756;2023-03-31T06:19:45;10.68;62.95
75380;HTU21D;65641;44.714;37.756;2023-03-31T06:20:48;10.67;62.91
75380;HTU21D;65641;44.714;37.756;2023-03-31T06:21:54;10.67;62.91
75380;HTU21D;65641;44.714;37.756;2023-03-31T06:22:57;10.66;62.89
75380;HTU21D;65641;44.714;37.756;2023-03-31T06:24:01;10.66;62.85
75380;HTU21D;65641;44.714;37.756;2023-03-31T06:25:04;10.65;62.86
75380;HTU21D;65641;44.714;37.756;2023-03-31T06:26:08;10.65;62.91
75380;HTU21D;65641;44.714;37.756;2023-03-31T06:27:11;10.64;62.99
75380;HTU21D;65641;44.714;37.756;2023-03-31T06:28:14;10.63;63.00
75380;HTU21D;65641;44.714;37.756;2023-03-31T06:29:18;10.62;63.04
75380;HTU21D;65641;44.714;37.756;2023-03-31T06:30:22;10.60;63.06
75380;HTU21D;65641;44.714;37.756;2023-03-31T06:31:25;10.62;63.07
75380;HTU21D;65641;44.714;37.756;2023-03-31T06:32:28;10.59;63.11
75380;HTU21D;65641;44.714;37.756;2023-03-31T06:33:32;10.59;63.12
75380;HTU21D;65641;44.714;37.756;2023-03-31T06:34:35;10.59;63.16
75380;HTU21D;65641;44.714;37.756;2023-03-31T06:35:39;10.59;63.12
75380;HTU21D;65641;44.714;37.756;2023-03-31T06:36:43;10.59;63.08
75380;HTU21D;65641;44.714;37.756;2023-03-31T06:37:46;10.59;63.07
75380;HTU21D;65641;44.714;37.756;2023-03-31T06:38:49;10.58;63.14
75380;HTU21D;65641;44.714;37.756;2023-03-31T06:39:53;10.58;63.16
75380;HTU21D;65641;44.714;37.756;2023-03-31T06:40:57;10.59;63.17
75380;HTU21D;65641;44.714;37.756;2023-03-31T06:42:00;10.58;63.24
75380;HTU21D;65641;44.714;37.756;2023-03-31T06:43:04;10.58;63.28
75380;HTU21D;65641;44.714;37.756;2023-03-31T06:44:07;10.59;63.32
75380;HTU21D;65641;44.714;37.756;2023-03-31T06:45:10;10.60;63.31
75380;HTU21D;65641;44.714;37.756;2023-03-31T06:46:14;10.60;63.45
75380;HTU21D;65641;44.714;37.756;2023-03-31T06:47:18;10.63;63.34
75380;HTU21D;65641;44.714;37.756;2023-03-31T06:48:22;10.62;63.36
75380;HTU21D;65641;44.714;37.756;2023-03-31T06:49:25;10.63;63.36
75380;HTU21D;65641;44.714;37.756;2023-03-31T06:50:28;10.64;63.36
75380;HTU21D;65641;44.714;37.756;2023-03-31T06:51:31;10.65;63.33
75380;HTU21D;65641;44.714;37.756;2023-03-31T06:52:34;10.65;63.37
75380;HTU21D;65641;44.714;37.756;2023-03-31T06:53:37;10.66;63.26
75380;HTU21D;65641;44.714;37.756;2023-03-31T06:54:41;10.67;63.31
75380;HTU21D;65641;44.714;37.756;2023-03-31T06:55:44;10.68;63.35
75380;HTU21D;65641;44.714;37.756;2023-03-31T06:56:47;10.71;63.13
75380;HTU21D;65641;44.714;37.756;2023-03-31T06:57:50;10.70;63.27
75380;HTU21D;65641;44.714;37.756;2023-03-31T06:58:56;10.71;63.30
75380;HTU21D;65641;44.714;37.756;2023-03-31T06:59:59;10.74;63.31
75380;HTU21D;65641;44.714;37.756;2023-03-31T07:01:04;10.78;63.37
75380;HTU21D;65641;44.714;37.756;2023-03-31T07:02:09;10.79;63.27
75380;HTU21D;65641;44.714;37.756;2023-03-31T07:03:13;10.81;63.37
75380;HTU21D;65641;44.714;37.756;2023-03-31T07:04:17;10.84;63.18
75380;HTU21D;65641;44.714;37.756;2023-03-31T07:05:22;10.85;63.29
75380;HTU21D;65641;44.714;37.756;2023-03-31T07:06:29;10.88;63.21
75380;HTU21D;65641;44.714;37.756;2023-03-31T07:07:33;10.90;63.36
75380;HTU21D;65641;44.714;37.756;2023-03-31T07:08:35;10.93;63.35
75380;HTU21D;65641;44.714;37.756;2023-03-31T07:09:38;10.97;63.23
75380;HTU21D;65641;44.714;37.756;2023-03-31T07:10:41;10.99;63.19
75380;HTU21D;65641;44.714;37.756;2023-03-31T07:11:45;11.03;63.12
75380;HTU21D;65641;44.714;37.756;2023-03-31T07:12:48;11.08;63.08
75380;HTU21D;65641;44.714;37.756;2023-03-31T07:13:51;11.13;62.87
75380;HTU21D;65641;44.714;37.756;2023-03-31T07:14:54;11.15;62.78
75380;HTU21D;65641;44.714;37.756;2023-03-31T07:15:57;11.18;63.02
75380;HTU21D;65641;44.714;37.756;2023-03-31T07:17:00;11.22;62.79
75380;HTU21D;65641;44.714;37.756;2023-03-31T07:18:03;11.27;62.93
75380;HTU21D;65641;44.714;37.756;2023-03-31T07:19:06;11.30;62.89
75380;HTU21D;65641;44.714;37.756;2023-03-31T07:20:12;11.36;62.85
75380;HTU21D;65641;44.714;37.756;2023-03-31T07:21:18;11.41;62.76
75380;HTU21D;65641;44.714;37.756;2023-03-31T07:22:21;11.47;62.79
75380;HTU21D;65641;44.714;37.756;2023-03-31T07:23:24;11.51;62.41
75380;HTU21D;65641;44.714;37.756;2023-03-31T07:24:27;11.56;62.50
75380;HTU21D;65641;44.714;37.756;2023-03-31T07:25:30;11.60;62.18
75380;HTU21D;65641;44.714;37.756;2023-03-31T07:26:33;11.67;62.59
75380;HTU21D;65641;44.714;37.756;2023-03-31T07:27:36;11.75;62.45
75380;HTU21D;65641;44.714;37.756;2023-03-31T07:28:39;11.81;62.19
75380;HTU21D;65641;44.714;37.756;2023-03-31T07:29:43;11.87;61.56
75380;HTU21D;65641;44.714;37.756;2023-03-31T07:30:45;11.93;61.52
75380;HTU21D;65641;44.714;37.756;2023-03-31T07:31:49;11.98;61.29
75380;HTU21D;65641;44.714;37.756;2023-03-31T07:32:52;12.03;61.12
75380;HTU21D;65641;44.714;37.756;2023-03-31T07:33:56;12.07;61.15
75380;HTU21D;65641;44.714;37.756;2023-03-31T07:34:59;12.12;60.90
75380;HTU21D;65641;44.714;37.756;2023-03-31T07:36:05;12.14;60.89
75380;HTU21D;65641;44.714;37.756;2023-03-31T07:37:14;12.16;60.91
75380;HTU21D;65641;44.714;37.756;2023-03-31T07:38:18;12.20;60.93